sensor_id;sensor_type;location;lat;lon;timestamp;P1;durP1;ratioP1;P2;durP2;ratioP2
76714;SDS011;65644;44.990;20.288;2024-03-02T00:00:54;33.20;;;21.23;;
76714;SDS011;65644;44.990;20.288;2024-03-02T00:03:20;32.75;;;20.65;;
76714;SDS011;65644;44.990;20.288;2024-03-02T00:05:50;33.15;;;20.58;;
76714;SDS011;65644;44.990;20.288;2024-03-02T00:08:22;30.35;;;20.05;;
76714;SDS011;65644;44.990;20.288;2024-03-02T00:10:49;34.95;;;20.80;;
76714;SDS011;65644;44.990;20.288;2024-03-02T00:13:16;33.58;;;20.73;;
76714;SDS011;65644;44.990;20.288;2024-03-02T00:18:12;33.33;;;22.08;;
76714;SDS011;65644;44.990;20.288;2024-03-02T00:20:38;32.47;;;21.38;;
76714;SDS011;65644;44.990;20.288;2024-03-02T00:23:09;32.58;;;21.33;;
76714;SDS011;65644;44.990;20.288;2024-03-02T00:28:09;33.85;;;22.17;;
76714;SDS011;65644;44.990;20.288;2024-03-02T00:33:09;31.85;;;21.27;;
76714;SDS011;65644;44.990;20.288;2024-03-02T00:35:36;33.00;;;21.17;;
76714;SDS011;65644;44.990;20.288;2024-03-02T00:38:05;34.10;;;22.55;;
76714;SDS011;65644;44.990;20.288;2024-03-02T00:40:32;28.02;;;20.13;;
76714;SDS011;65644;44.990;20.288;2024-03-02T00:42:58;29.05;;;19.67;;
76714;SDS011;65644;44.990;20.288;2024-03-02T00:45:25;27.80;;;20.20;;
76714;SDS011;65644;44.990;20.288;2024-03-02T00:47:51;27.98;;;19.75;;
76714;SDS011;65644;44.990;20.288;2024-03-02T00:50:18;26.90;;;19.33;;
76714;SDS011;65644;44.990;20.288;2024-03-02T00:52:44;26.45;;;19.63;;
76714;SDS011;65644;44.990;20.288;2024-03-02T00:55:10;26.42;;;18.70;;
76714;SDS011;65644;44.990;20.288;2024-03-02T00:57:37;27.63;;;19.63;;
76714;SDS011;65644;44.990;20.288;2024-03-02T01:00:04;25.40;;;18.85;;
76714;SDS011;65644;44.990;20.288;2024-03-02T01:02:35;26.70;;;18.55;;
76714;SDS011;65644;44.990;20.288;2024-03-02T01:05:01;22.30;;;17.83;;
76714;SDS011;65644;44.990;20.288;2024-03-02T01:07:27;22.90;;;17.73;;
76714;SDS011;65644;44.990;20.288;2024-03-02T01:09:53;22.75;;;17.00;;
76714;SDS011;65644;44.990;20.288;2024-03-02T01:12:19;22.77;;;16.17;;
76714;SDS011;65644;44.990;20.288;2024-03-02T01:14:45;24.70;;;16.83;;
76714;SDS011;65644;44.990;20.288;2024-03-02T01:17:11;21.85;;;15.93;;
76714;SDS011;65644;44.990;20.288;2024-03-02T01:19:37;21.52;;;16.13;;
76714;SDS011;65644;44.990;20.288;2024-03-02T01:22:05;24.95;;;16.85;;
76714;SDS011;65644;44.990;20.288;2024-03-02T01:24:31;22.40;;;15.82;;
76714;SDS011;65644;44.990;20.288;2024-03-02T01:26:58;21.33;;;15.20;;
76714;SDS011;65644;44.990;20.288;2024-03-02T01:29:24;22.13;;;14.73;;
76714;SDS011;65644;44.990;20.288;2024-03-02T01:31:50;17.80;;;13.68;;
76714;SDS011;65644;44.990;20.288;2024-03-02T01:34:18;16.42;;;13.80;;
76714;SDS011;65644;44.990;20.288;2024-03-02T01:36:45;18.05;;;13.05;;
76714;SDS011;65644;44.990;20.288;2024-03-02T01:39:11;19.13;;;13.95;;
76714;SDS011;65644;44.990;20.288;2024-03-02T01:41:37;17.83;;;12.88;;
76714;SDS011;65644;44.990;20.288;2024-03-02T01:44:03;15.85;;;12.48;;
76714;SDS011;65644;44.990;20.288;2024-03-02T01:46:30;16.75;;;12.50;;
76714;SDS011;65644;44.990;20.288;2024-03-02T01:48:56;21.13;;;13.00;;
76714;SDS011;65644;44.990;20.288;2024-03-02T01:51:22;16.40;;;12.05;;
76714;SDS011;65644;44.990;20.288;2024-03-02T01:53:48;16.90;;;12.23;;
76714;SDS011;65644;44.990;20.288;2024-03-02T01:56:14;15.80;;;11.82;;
76714;SDS011;65644;44.990;20.288;2024-03-02T01:58:40;15.93;;;11.98;;
76714;SDS011;65644;44.990;20.288;2024-03-02T02:01:06;16.00;;;11.57;;
76714;SDS011;65644;44.990;20.288;2024-03-02T02:03:32;13.90;;;11.20;;
76714;SDS011;65644;44.990;20.288;2024-03-02T02:05:58;13.95;;;11.07;;
76714;SDS011;65644;44.990;20.288;2024-03-02T02:08:24;14.68;;;11.27;;
76714;SDS011;65644;44.990;20.288;2024-03-02T02:10:50;16.85;;;12.13;;
76714;SDS011;65644;44.990;20.288;2024-03-02T02:13:17;14.60;;;11.00;;
76714;SDS011;65644;44.990;20.288;2024-03-02T02:15:43;14.52;;;11.18;;
76714;SDS011;65644;44.990;20.288;2024-03-02T02:18:09;14.75;;;11.25;;
76714;SDS011;65644;44.990;20.288;2024-03-02T02:20:35;14.23;;;10.43;;
76714;SDS011;65644;44.990;20.288;2024-03-02T02:23:02;14.15;;;11.10;;
76714;SDS011;65644;44.990;20.288;2024-03-02T02:25:29;13.70;;;10.60;;
76714;SDS011;65644;44.990;20.288;2024-03-02T02:27:55;13.73;;;10.75;;
76714;SDS011;65644;44.990;20.288;2024-03-02T02:30:24;13.77;;;10.68;;
76714;SDS011;65644;44.990;20.288;2024-03-02T02:32:50;14.30;;;10.75;;
76714;SDS011;65644;44.990;20.288;2024-03-02T02:35:16;15.93;;;10.93;;
76714;SDS011;65644;44.990;20.288;2024-03-02T02:37:43;14.32;;;10.90;;
76714;SDS011;65644;44.990;20.288;2024-03-02T02:40:10;12.75;;;10.27;;
76714;SDS011;65644;44.990;20.288;2024-03-02T02:42:36;14.38;;;10.52;;
76714;SDS011;65644;44.990;20.288;2024-03-02T02:45:02;15.05;;;10.73;;
76714;SDS011;65644;44.990;20.288;2024-03-02T02:47:29;12.93;;;10.73;;
76714;SDS011;65644;44.990;20.288;2024-03-02T02:49:55;14.18;;;10.88;;
76714;SDS011;65644;44.990;20.288;2024-03-02T02:52:21;12.65;;;11.07;;
76714;SDS011;65644;44.990;20.288;2024-03-02T02:54:47;13.57;;;10.32;;
76714;SDS011;65644;44.990;20.288;2024-03-02T02:57:13;15.88;;;11.07;;
76714;SDS011;65644;44.990;20.288;2024-03-02T02:59:39;14.27;;;10.90;;
76714;SDS011;65644;44.990;20.288;2024-03-02T03:02:05;14.75;;;11.48;;
76714;SDS011;65644;44.990;20.288;2024-03-02T03:04:31;13.85;;;10.38;;
76714;SDS011;65644;44.990;20.288;2024-03-02T03:06:57;13.27;;;10.65;;
76714;SDS011;65644;44.990;20.288;2024-03-02T03:09:23;14.27;;;10.27;;
76714;SDS011;65644;44.990;20.288;2024-03-02T03:11:49;13.80;;;10.57;;
76714;SDS011;65644;44.990;20.288;2024-03-02T03:14:16;12.15;;;10.00;;
76714;SDS011;65644;44.990;20.288;2024-03-02T03:16:42;15.50;;;11.05;;
76714;SDS011;65644;44.990;20.288;2024-03-02T03:19:08;13.82;;;10.05;;
76714;SDS011;65644;44.990;20.288;2024-03-02T03:21:34;13.43;;;10.05;;
76714;SDS011;65644;44.990;20.288;2024-03-02T03:24:00;14.07;;;10.52;;
76714;SDS011;65644;44.990;20.288;2024-03-02T03:26:26;15.18;;;11.32;;
76714;SDS011;65644;44.990;20.288;2024-03-02T03:28:52;13.50;;;10.30;;
76714;SDS011;65644;44.990;20.288;2024-03-02T03:31:18;14.98;;;10.18;;
76714;SDS011;65644;44.990;20.288;2024-03-02T03:33:44;10.93;;;9.30;;
76714;SDS011;65644;44.990;20.288;2024-03-02T03:36:10;14.10;;;10.40;;
76714;SDS011;65644;44.990;20.288;2024-03-02T03:38:36;12.52;;;9.85;;
76714;SDS011;65644;44.990;20.288;2024-03-02T03:41:02;13.95;;;10.23;;
76714;SDS011;65644;44.990;20.288;2024-03-02T03:43:28;12.23;;;9.82;;
76714;SDS011;65644;44.990;20.288;2024-03-02T03:45:54;12.68;;;9.70;;
76714;SDS011;65644;44.990;20.288;2024-03-02T03:48:20;11.73;;;9.55;;
76714;SDS011;65644;44.990;20.288;2024-03-02T03:50:46;11.93;;;9.35;;
76714;SDS011;65644;44.990;20.288;2024-03-02T03:53:12;13.32;;;10.43;;
76714;SDS011;65644;44.990;20.288;2024-03-02T03:55:39;13.20;;;9.68;;
76714;SDS011;65644;44.990;20.288;2024-03-02T03:58:06;12.68;;;10.10;;
76714;SDS011;65644;44.990;20.288;2024-03-02T04:00:32;11.85;;;9.77;;
76714;SDS011;65644;44.990;20.288;2024-03-02T04:02:58;12.57;;;9.73;;
76714;SDS011;65644;44.990;20.288;2024-03-02T04:05:24;11.85;;;9.02;;
76714;SDS011;65644;44.990;20.288;2024-03-02T04:07:50;11.40;;;9.30;;
76714;SDS011;65644;44.990;20.288;2024-03-02T04:10:16;13.35;;;9.18;;
76714;SDS011;65644;44.990;20.288;2024-03-02T04:12:42;12.68;;;9.75;;
76714;SDS011;65644;44.990;20.288;2024-03-02T04:15:09;10.80;;;9.10;;
76714;SDS011;65644;44.990;20.288;2024-03-02T04:17:35;9.32;;;8.43;;
76714;SDS011;65644;44.990;20.288;2024-03-02T04:20:01;13.82;;;8.40;;
76714;SDS011;65644;44.990;20.288;2024-03-02T04:22:30;10.05;;;8.38;;
76714;SDS011;65644;44.990;20.288;2024-03-02T04:24:56;9.35;;;8.40;;
76714;SDS011;65644;44.990;20.288;2024-03-02T04:27:22;11.80;;;8.45;;
76714;SDS011;65644;44.990;20.288;2024-03-02T04:29:48;10.85;;;8.40;;
76714;SDS011;65644;44.990;20.288;2024-03-02T04:32:14;9.75;;;8.75;;
76714;SDS011;65644;44.990;20.288;2024-03-02T04:34:40;10.57;;;8.23;;
76714;SDS011;65644;44.990;20.288;2024-03-02T04:37:07;9.27;;;8.35;;
76714;SDS011;65644;44.990;20.288;2024-03-02T04:39:34;8.98;;;7.47;;
76714;SDS011;65644;44.990;20.288;2024-03-02T04:42:00;9.32;;;7.93;;
76714;SDS011;65644;44.990;20.288;2024-03-02T04:44:27;9.82;;;8.25;;
76714;SDS011;65644;44.990;20.288;2024-03-02T04:46:54;9.27;;;7.20;;
76714;SDS011;65644;44.990;20.288;2024-03-02T04:49:20;9.82;;;7.50;;
76714;SDS011;65644;44.990;20.288;2024-03-02T04:51:46;7.90;;;7.10;;
76714;SDS011;65644;44.990;20.288;2024-03-02T04:54:12;7.13;;;6.30;;
76714;SDS011;65644;44.990;20.288;2024-03-02T04:56:39;7.15;;;6.45;;
76714;SDS011;65644;44.990;20.288;2024-03-02T04:59:09;7.43;;;6.47;;
76714;SDS011;65644;44.990;20.288;2024-03-02T05:01:35;8.35;;;6.97;;
76714;SDS011;65644;44.990;20.288;2024-03-02T05:04:01;6.78;;;5.93;;
76714;SDS011;65644;44.990;20.288;2024-03-02T05:06:28;8.18;;;6.25;;
76714;SDS011;65644;44.990;20.288;2024-03-02T05:08:55;7.43;;;5.82;;
76714;SDS011;65644;44.990;20.288;2024-03-02T05:11:21;7.45;;;6.25;;
76714;SDS011;65644;44.990;20.288;2024-03-02T05:14:03;7.45;;;6.00;;
76714;SDS011;65644;44.990;20.288;2024-03-02T05:16:29;6.22;;;5.10;;
76714;SDS011;65644;44.990;20.288;2024-03-02T05:18:58;7.00;;;5.95;;
76714;SDS011;65644;44.990;20.288;2024-03-02T05:21:24;8.15;;;5.85;;
76714;SDS011;65644;44.990;20.288;2024-03-02T05:23:51;5.88;;;5.38;;
76714;SDS011;65644;44.990;20.288;2024-03-02T05:26:17;6.25;;;5.65;;
76714;SDS011;65644;44.990;20.288;2024-03-02T05:28:43;6.72;;;6.03;;
76714;SDS011;65644;44.990;20.288;2024-03-02T05:31:12;7.63;;;6.55;;
76714;SDS011;65644;44.990;20.288;2024-03-02T05:33:40;7.70;;;5.95;;
76714;SDS011;65644;44.990;20.288;2024-03-02T05:36:06;7.32;;;5.97;;
76714;SDS011;65644;44.990;20.288;2024-03-02T05:38:35;7.28;;;6.50;;
76714;SDS011;65644;44.990;20.288;2024-03-02T05:41:02;8.07;;;6.40;;
76714;SDS011;65644;44.990;20.288;2024-03-02T05:43:28;8.27;;;6.00;;
76714;SDS011;65644;44.990;20.288;2024-03-02T05:45:54;6.55;;;5.90;;
76714;SDS011;65644;44.990;20.288;2024-03-02T05:48:20;6.90;;;5.30;;
76714;SDS011;65644;44.990;20.288;2024-03-02T05:50:46;6.90;;;5.60;;
76714;SDS011;65644;44.990;20.288;2024-03-02T05:53:12;7.05;;;5.90;;
76714;SDS011;65644;44.990;20.288;2024-03-02T05:55:38;8.02;;;5.80;;
76714;SDS011;65644;44.990;20.288;2024-03-02T05:58:04;7.30;;;5.38;;
76714;SDS011;65644;44.990;20.288;2024-03-02T06:00:30;5.88;;;5.13;;
76714;SDS011;65644;44.990;20.288;2024-03-02T06:02:56;6.82;;;5.40;;
76714;SDS011;65644;44.990;20.288;2024-03-02T06:05:23;8.07;;;5.93;;
76714;SDS011;65644;44.990;20.288;2024-03-02T06:07:49;7.22;;;5.80;;
76714;SDS011;65644;44.990;20.288;2024-03-02T06:10:16;7.40;;;6.07;;
76714;SDS011;65644;44.990;20.288;2024-03-02T06:12:42;7.15;;;6.38;;
76714;SDS011;65644;44.990;20.288;2024-03-02T06:15:09;8.13;;;6.13;;
76714;SDS011;65644;44.990;20.288;2024-03-02T06:17:36;7.85;;;6.45;;
76714;SDS011;65644;44.990;20.288;2024-03-02T06:20:02;7.22;;;5.82;;
76714;SDS011;65644;44.990;20.288;2024-03-02T06:22:28;11.98;;;9.02;;
76714;SDS011;65644;44.990;20.288;2024-03-02T06:24:54;11.80;;;9.15;;
76714;SDS011;65644;44.990;20.288;2024-03-02T06:27:21;27.92;;;17.35;;
76714;SDS011;65644;44.990;20.288;2024-03-02T06:29:47;24.08;;;15.00;;
76714;SDS011;65644;44.990;20.288;2024-03-02T06:32:13;19.10;;;12.10;;
76714;SDS011;65644;44.990;20.288;2024-03-02T06:34:39;19.48;;;12.75;;
76714;SDS011;65644;44.990;20.288;2024-03-02T06:37:05;16.88;;;12.13;;
76714;SDS011;65644;44.990;20.288;2024-03-02T06:39:31;14.45;;;10.50;;
76714;SDS011;65644;44.990;20.288;2024-03-02T06:41:59;9.63;;;7.57;;
76714;SDS011;65644;44.990;20.288;2024-03-02T06:44:25;8.80;;;7.82;;
76714;SDS011;65644;44.990;20.288;2024-03-02T06:46:51;8.27;;;7.25;;
76714;SDS011;65644;44.990;20.288;2024-03-02T06:49:17;7.28;;;6.32;;
76714;SDS011;65644;44.990;20.288;2024-03-02T06:51:44;6.82;;;5.90;;
76714;SDS011;65644;44.990;20.288;2024-03-02T06:54:10;6.97;;;5.95;;
76714;SDS011;65644;44.990;20.288;2024-03-02T06:56:36;6.10;;;4.75;;
76714;SDS011;65644;44.990;20.288;2024-03-02T06:59:03;6.15;;;4.90;;
76714;SDS011;65644;44.990;20.288;2024-03-02T07:01:29;5.47;;;4.70;;
76714;SDS011;65644;44.990;20.288;2024-03-02T07:03:55;5.63;;;4.85;;
76714;SDS011;65644;44.990;20.288;2024-03-02T07:06:21;7.00;;;5.50;;
76714;SDS011;65644;44.990;20.288;2024-03-02T07:08:48;5.43;;;4.57;;
76714;SDS011;65644;44.990;20.288;2024-03-02T07:11:14;5.38;;;4.35;;
76714;SDS011;65644;44.990;20.288;2024-03-02T07:13:40;5.60;;;4.88;;
76714;SDS011;65644;44.990;20.288;2024-03-02T07:16:06;6.97;;;5.63;;
76714;SDS011;65644;44.990;20.288;2024-03-02T07:18:53;4.68;;;4.20;;
76714;SDS011;65644;44.990;20.288;2024-03-02T07:21:21;5.25;;;4.50;;
76714;SDS011;65644;44.990;20.288;2024-03-02T07:23:47;5.15;;;4.55;;
76714;SDS011;65644;44.990;20.288;2024-03-02T07:26:14;3.80;;;3.50;;
76714;SDS011;65644;44.990;20.288;2024-03-02T07:28:40;4.10;;;2.85;;
76714;SDS011;65644;44.990;20.288;2024-03-02T07:31:06;4.20;;;3.30;;
76714;SDS011;65644;44.990;20.288;2024-03-02T07:33:33;4.75;;;3.53;;
76714;SDS011;65644;44.990;20.288;2024-03-02T07:36:00;3.30;;;2.80;;
76714;SDS011;65644;44.990;20.288;2024-03-02T07:38:27;3.60;;;3.30;;
76714;SDS011;65644;44.990;20.288;2024-03-02T07:40:53;5.70;;;5.18;;
76714;SDS011;65644;44.990;20.288;2024-03-02T07:43:20;4.28;;;3.88;;
76714;SDS011;65644;44.990;20.288;2024-03-02T07:45:47;7.75;;;4.10;;
76714;SDS011;65644;44.990;20.288;2024-03-02T07:48:13;3.80;;;3.45;;
76714;SDS011;65644;44.990;20.288;2024-03-02T07:50:43;4.95;;;3.15;;
76714;SDS011;65644;44.990;20.288;2024-03-02T07:53:09;4.35;;;3.40;;
76714;SDS011;65644;44.990;20.288;2024-03-02T07:55:36;4.00;;;3.65;;
76714;SDS011;65644;44.990;20.288;2024-03-02T07:58:02;3.13;;;2.80;;
76714;SDS011;65644;44.990;20.288;2024-03-02T08:00:28;3.67;;;3.03;;
76714;SDS011;65644;44.990;20.288;2024-03-02T08:02:56;4.88;;;3.55;;
76714;SDS011;65644;44.990;20.288;2024-03-02T08:05:22;4.28;;;2.95;;
76714;SDS011;65644;44.990;20.288;2024-03-02T08:07:48;4.30;;;3.22;;
76714;SDS011;65644;44.990;20.288;2024-03-02T08:10:17;6.07;;;3.35;;
76714;SDS011;65644;44.990;20.288;2024-03-02T08:12:44;4.13;;;3.67;;
76714;SDS011;65644;44.990;20.288;2024-03-02T08:15:10;7.15;;;4.63;;
76714;SDS011;65644;44.990;20.288;2024-03-02T08:17:38;3.05;;;2.75;;
76714;SDS011;65644;44.990;20.288;2024-03-02T08:20:09;3.40;;;2.88;;
76714;SDS011;65644;44.990;20.288;2024-03-02T08:22:36;2.92;;;2.67;;
76714;SDS011;65644;44.990;20.288;2024-03-02T08:25:02;6.25;;;3.05;;
76714;SDS011;65644;44.990;20.288;2024-03-02T08:27:32;3.53;;;2.72;;
76714;SDS011;65644;44.990;20.288;2024-03-02T08:29:58;3.47;;;3.15;;
76714;SDS011;65644;44.990;20.288;2024-03-02T08:32:25;3.63;;;2.53;;
76714;SDS011;65644;44.990;20.288;2024-03-02T08:34:51;3.97;;;2.85;;
76714;SDS011;65644;44.990;20.288;2024-03-02T08:37:21;2.60;;;2.35;;
76714;SDS011;65644;44.990;20.288;2024-03-02T08:39:48;3.78;;;2.90;;
76714;SDS011;65644;44.990;20.288;2024-03-02T08:42:15;2.97;;;2.65;;
76714;SDS011;65644;44.990;20.288;2024-03-02T08:44:42;3.95;;;2.90;;
76714;SDS011;65644;44.990;20.288;2024-03-02T08:47:08;2.63;;;2.42;;
76714;SDS011;65644;44.990;20.288;2024-03-02T08:49:35;2.60;;;2.25;;
76714;SDS011;65644;44.990;20.288;2024-03-02T08:52:01;3.78;;;2.35;;
76714;SDS011;65644;44.990;20.288;2024-03-02T08:54:27;3.10;;;2.78;;
76714;SDS011;65644;44.990;20.288;2024-03-02T08:56:53;2.90;;;2.47;;
76714;SDS011;65644;44.990;20.288;2024-03-02T08:59:19;6.45;;;4.43;;
76714;SDS011;65644;44.990;20.288;2024-03-02T09:01:45;7.72;;;4.60;;
76714;SDS011;65644;44.990;20.288;2024-03-02T09:04:11;9.27;;;5.22;;
76714;SDS011;65644;44.990;20.288;2024-03-02T09:06:37;7.75;;;4.55;;
76714;SDS011;65644;44.990;20.288;2024-03-02T09:09:03;6.13;;;4.30;;
76714;SDS011;65644;44.990;20.288;2024-03-02T09:11:29;11.32;;;6.95;;
76714;SDS011;65644;44.990;20.288;2024-03-02T09:13:57;15.07;;;7.28;;
76714;SDS011;65644;44.990;20.288;2024-03-02T09:16:23;12.77;;;6.50;;
76714;SDS011;65644;44.990;20.288;2024-03-02T09:18:53;8.43;;;4.07;;
76714;SDS011;65644;44.990;20.288;2024-03-02T09:21:19;14.40;;;7.25;;
76714;SDS011;65644;44.990;20.288;2024-03-02T09:23:45;6.85;;;4.53;;
76714;SDS011;65644;44.990;20.288;2024-03-02T09:26:13;11.07;;;5.80;;
76714;SDS011;65644;44.990;20.288;2024-03-02T09:28:42;9.27;;;5.07;;
76714;SDS011;65644;44.990;20.288;2024-03-02T09:31:09;7.60;;;4.25;;
76714;SDS011;65644;44.990;20.288;2024-03-02T09:33:35;17.98;;;7.80;;
76714;SDS011;65644;44.990;20.288;2024-03-02T09:36:01;40.13;;;14.68;;
76714;SDS011;65644;44.990;20.288;2024-03-02T09:38:27;29.27;;;11.68;;
76714;SDS011;65644;44.990;20.288;2024-03-02T09:40:53;16.35;;;7.63;;
76714;SDS011;65644;44.990;20.288;2024-03-02T09:43:19;23.00;;;10.38;;
76714;SDS011;65644;44.990;20.288;2024-03-02T09:45:45;12.02;;;6.38;;
76714;SDS011;65644;44.990;20.288;2024-03-02T09:48:11;10.38;;;5.80;;
76714;SDS011;65644;44.990;20.288;2024-03-02T09:50:37;21.90;;;10.25;;
76714;SDS011;65644;44.990;20.288;2024-03-02T09:53:03;24.95;;;11.68;;
76714;SDS011;65644;44.990;20.288;2024-03-02T09:55:30;10.00;;;5.43;;
76714;SDS011;65644;44.990;20.288;2024-03-02T09:57:56;8.35;;;4.80;;
76714;SDS011;65644;44.990;20.288;2024-03-02T10:00:22;5.05;;;3.70;;
76714;SDS011;65644;44.990;20.288;2024-03-02T10:02:50;23.92;;;10.38;;
76714;SDS011;65644;44.990;20.288;2024-03-02T10:05:25;28.48;;;11.75;;
76714;SDS011;65644;44.990;20.288;2024-03-02T10:07:58;24.55;;;9.73;;
76714;SDS011;65644;44.990;20.288;2024-03-02T10:10:26;16.05;;;6.60;;
76714;SDS011;65644;44.990;20.288;2024-03-02T10:13:06;7.07;;;4.03;;
76714;SDS011;65644;44.990;20.288;2024-03-02T10:15:32;15.30;;;7.38;;
76714;SDS011;65644;44.990;20.288;2024-03-02T10:17:59;27.17;;;11.10;;
76714;SDS011;65644;44.990;20.288;2024-03-02T10:20:26;11.80;;;5.57;;
76714;SDS011;65644;44.990;20.288;2024-03-02T10:22:55;19.73;;;8.48;;
76714;SDS011;65644;44.990;20.288;2024-03-02T10:25:29;20.67;;;9.00;;
76714;SDS011;65644;44.990;20.288;2024-03-02T10:27:58;27.48;;;11.88;;
76714;SDS011;65644;44.990;20.288;2024-03-02T10:30:25;27.20;;;12.18;;
76714;SDS011;65644;44.990;20.288;2024-03-02T10:32:52;12.23;;;7.07;;
76714;SDS011;65644;44.990;20.288;2024-03-02T10:35:19;23.77;;;9.45;;
76714;SDS011;65644;44.990;20.288;2024-03-02T10:37:47;19.75;;;7.82;;
76714;SDS011;65644;44.990;20.288;2024-03-02T10:40:13;12.32;;;6.03;;
76714;SDS011;65644;44.990;20.288;2024-03-02T10:42:40;20.17;;;8.10;;
76714;SDS011;65644;44.990;20.288;2024-03-02T10:45:08;30.58;;;11.32;;
76714;SDS011;65644;44.990;20.288;2024-03-02T10:47:38;19.10;;;7.22;;
76714;SDS011;65644;44.990;20.288;2024-03-02T10:50:04;11.93;;;5.93;;
76714;SDS011;65644;44.990;20.288;2024-03-02T10:52:36;18.92;;;8.27;;
76714;SDS011;65644;44.990;20.288;2024-03-02T10:55:02;17.08;;;7.50;;
76714;SDS011;65644;44.990;20.288;2024-03-02T10:57:40;13.60;;;6.13;;
76714;SDS011;65644;44.990;20.288;2024-03-02T11:00:07;9.88;;;6.57;;
76714;SDS011;65644;44.990;20.288;2024-03-02T11:02:40;10.85;;;6.75;;
76714;SDS011;65644;44.990;20.288;2024-03-02T11:05:07;10.45;;;6.47;;
76714;SDS011;65644;44.990;20.288;2024-03-02T11:07:35;5.47;;;4.07;;
76714;SDS011;65644;44.990;20.288;2024-03-02T11:10:03;5.63;;;4.40;;
76714;SDS011;65644;44.990;20.288;2024-03-02T11:12:38;9.68;;;6.93;;
76714;SDS011;65644;44.990;20.288;2024-03-02T11:15:07;4.22;;;3.83;;
76714;SDS011;65644;44.990;20.288;2024-03-02T11:17:35;4.93;;;3.38;;
76714;SDS011;65644;44.990;20.288;2024-03-02T11:20:03;5.35;;;4.20;;
76714;SDS011;65644;44.990;20.288;2024-03-02T11:22:29;4.97;;;4.50;;
76714;SDS011;65644;44.990;20.288;2024-03-02T11:24:56;5.70;;;4.35;;
76714;SDS011;65644;44.990;20.288;2024-03-02T11:30:07;6.80;;;3.95;;
76714;SDS011;65644;44.990;20.288;2024-03-02T11:32:33;6.05;;;4.13;;
76714;SDS011;65644;44.990;20.288;2024-03-02T11:34:59;6.32;;;4.43;;
76714;SDS011;65644;44.990;20.288;2024-03-02T11:37:25;6.78;;;4.50;;
76714;SDS011;65644;44.990;20.288;2024-03-02T11:39:51;7.43;;;3.50;;
76714;SDS011;65644;44.990;20.288;2024-03-02T11:42:18;9.00;;;4.72;;
76714;SDS011;65644;44.990;20.288;2024-03-02T11:44:47;6.63;;;3.92;;
76714;SDS011;65644;44.990;20.288;2024-03-02T11:47:15;4.15;;;3.53;;
76714;SDS011;65644;44.990;20.288;2024-03-02T11:52:08;4.13;;;3.45;;
76714;SDS011;65644;44.990;20.288;2024-03-02T11:54:34;4.82;;;3.47;;
76714;SDS011;65644;44.990;20.288;2024-03-02T11:57:04;6.38;;;4.35;;
76714;SDS011;65644;44.990;20.288;2024-03-02T11:59:31;5.25;;;3.67;;
76714;SDS011;65644;44.990;20.288;2024-03-02T12:01:57;4.30;;;3.80;;
76714;SDS011;65644;44.990;20.288;2024-03-02T12:04:25;10.18;;;7.90;;
76714;SDS011;65644;44.990;20.288;2024-03-02T12:06:55;5.20;;;3.33;;
76714;SDS011;65644;44.990;20.288;2024-03-02T12:09:21;5.78;;;3.33;;
76714;SDS011;65644;44.990;20.288;2024-03-02T12:11:48;6.95;;;4.80;;
76714;SDS011;65644;44.990;20.288;2024-03-02T12:14:14;4.30;;;3.55;;
76714;SDS011;65644;44.990;20.288;2024-03-02T12:16:44;21.67;;;14.60;;
76714;SDS011;65644;44.990;20.288;2024-03-02T12:19:10;6.47;;;5.60;;
76714;SDS011;65644;44.990;20.288;2024-03-02T12:21:36;5.95;;;4.20;;
76714;SDS011;65644;44.990;20.288;2024-03-02T12:24:02;5.57;;;4.20;;
76714;SDS011;65644;44.990;20.288;2024-03-02T12:26:28;4.65;;;3.70;;
76714;SDS011;65644;44.990;20.288;2024-03-02T12:28:55;7.00;;;4.13;;
76714;SDS011;65644;44.990;20.288;2024-03-02T12:31:21;6.47;;;4.70;;
76714;SDS011;65644;44.990;20.288;2024-03-02T12:33:47;3.83;;;3.50;;
76714;SDS011;65644;44.990;20.288;2024-03-02T12:36:13;5.03;;;3.88;;
76714;SDS011;65644;44.990;20.288;2024-03-02T12:38:45;9.32;;;7.13;;
76714;SDS011;65644;44.990;20.288;2024-03-02T12:41:14;24.73;;;16.10;;
76714;SDS011;65644;44.990;20.288;2024-03-02T12:43:41;17.60;;;13.23;;
76714;SDS011;65644;44.990;20.288;2024-03-02T12:46:07;23.23;;;14.88;;
76714;SDS011;65644;44.990;20.288;2024-03-02T12:48:34;31.48;;;25.48;;
76714;SDS011;65644;44.990;20.288;2024-03-02T12:51:00;7.68;;;6.78;;
76714;SDS011;65644;44.990;20.288;2024-03-02T12:53:27;23.38;;;16.23;;
76714;SDS011;65644;44.990;20.288;2024-03-02T12:55:53;6.05;;;4.55;;
76714;SDS011;65644;44.990;20.288;2024-03-02T12:58:21;7.13;;;5.20;;
76714;SDS011;65644;44.990;20.288;2024-03-02T13:00:47;6.32;;;5.03;;
76714;SDS011;65644;44.990;20.288;2024-03-02T13:03:13;5.78;;;5.00;;
76714;SDS011;65644;44.990;20.288;2024-03-02T13:05:43;6.13;;;4.32;;
76714;SDS011;65644;44.990;20.288;2024-03-02T13:08:14;6.65;;;4.32;;
76714;SDS011;65644;44.990;20.288;2024-03-02T13:10:40;7.28;;;5.10;;
76714;SDS011;65644;44.990;20.288;2024-03-02T13:13:06;5.60;;;4.30;;
76714;SDS011;65644;44.990;20.288;2024-03-02T13:15:33;5.35;;;4.55;;
76714;SDS011;65644;44.990;20.288;2024-03-02T13:17:59;5.13;;;3.85;;
76714;SDS011;65644;44.990;20.288;2024-03-02T13:20:29;15.43;;;4.22;;
76714;SDS011;65644;44.990;20.288;2024-03-02T13:22:57;7.50;;;4.10;;
76714;SDS011;65644;44.990;20.288;2024-03-02T13:25:23;6.00;;;4.18;;
76714;SDS011;65644;44.990;20.288;2024-03-02T13:27:49;7.75;;;5.25;;
76714;SDS011;65644;44.990;20.288;2024-03-02T13:30:16;4.82;;;4.10;;
76714;SDS011;65644;44.990;20.288;2024-03-02T13:32:42;5.68;;;4.47;;
76714;SDS011;65644;44.990;20.288;2024-03-02T13:35:08;4.18;;;3.47;;
76714;SDS011;65644;44.990;20.288;2024-03-02T13:37:36;6.63;;;4.18;;
76714;SDS011;65644;44.990;20.288;2024-03-02T13:40:02;4.50;;;3.65;;
76714;SDS011;65644;44.990;20.288;2024-03-02T13:42:29;5.05;;;4.00;;
76714;SDS011;65644;44.990;20.288;2024-03-02T13:44:56;5.63;;;4.13;;
76714;SDS011;65644;44.990;20.288;2024-03-02T13:47:22;6.40;;;5.43;;
76714;SDS011;65644;44.990;20.288;2024-03-02T13:49:48;7.63;;;5.28;;
76714;SDS011;65644;44.990;20.288;2024-03-02T13:52:14;6.22;;;4.18;;
76714;SDS011;65644;44.990;20.288;2024-03-02T13:54:46;6.97;;;3.95;;
76714;SDS011;65644;44.990;20.288;2024-03-02T13:57:12;5.68;;;4.22;;
76714;SDS011;65644;44.990;20.288;2024-03-02T13:59:39;5.03;;;3.83;;
76714;SDS011;65644;44.990;20.288;2024-03-02T14:02:06;5.22;;;3.92;;
76714;SDS011;65644;44.990;20.288;2024-03-02T14:04:33;7.93;;;4.47;;
76714;SDS011;65644;44.990;20.288;2024-03-02T14:06:59;7.80;;;4.68;;
76714;SDS011;65644;44.990;20.288;2024-03-02T14:09:25;12.75;;;6.20;;
76714;SDS011;65644;44.990;20.288;2024-03-02T14:11:52;6.57;;;4.97;;
76714;SDS011;65644;44.990;20.288;2024-03-02T14:14:18;5.88;;;3.75;;
76714;SDS011;65644;44.990;20.288;2024-03-02T14:16:44;9.13;;;5.18;;
76714;SDS011;65644;44.990;20.288;2024-03-02T14:19:11;8.20;;;4.43;;
76714;SDS011;65644;44.990;20.288;2024-03-02T14:21:37;6.55;;;3.80;;
76714;SDS011;65644;44.990;20.288;2024-03-02T14:24:03;6.13;;;3.92;;
76714;SDS011;65644;44.990;20.288;2024-03-02T14:26:32;4.60;;;3.60;;
76714;SDS011;65644;44.990;20.288;2024-03-02T14:28:58;6.22;;;3.88;;
76714;SDS011;65644;44.990;20.288;2024-03-02T14:31:26;4.90;;;3.55;;
76714;SDS011;65644;44.990;20.288;2024-03-02T14:33:52;4.35;;;3.35;;